createdAt,value
2023-03-19T00:00:53.656Z,4.38
2023-03-19T00:03:21.659Z,4.72
2023-03-19T00:05:53.726Z,4.90
2023-03-19T00:08:22.652Z,4.20
2023-03-19T00:10:50.978Z,3.88
2023-03-19T00:13:19.324Z,4.13
2023-03-19T00:15:47.563Z,4.18
2023-03-19T00:18:16.072Z,4.82
2023-03-19T00:20:44.863Z,4.75
2023-03-19T00:23:12.809Z,4.82
2023-03-19T00:25:40.769Z,4.85
2023-03-19T00:28:09.109Z,3.60
2023-03-19T00:30:37.157Z,4.30
2023-03-19T00:33:05.100Z,4.88
2023-03-19T00:35:33.946Z,4.40
2023-03-19T00:38:02.040Z,4.65
2023-03-19T00:40:33.488Z,4.93
2023-03-19T00:43:01.566Z,4.82
2023-03-19T00:45:30.715Z,5.40
2023-03-19T00:47:58.938Z,5.05
2023-03-19T00:50:27.091Z,4.40
2023-03-19T00:52:55.264Z,4.15
2023-03-19T00:55:23.224Z,4.00
2023-03-19T00:57:51.290Z,3.55
2023-03-19T01:00:19.797Z,3.60
2023-03-19T01:02:48.271Z,3.92
2023-03-19T01:05:16.478Z,5.05
2023-03-19T01:07:44.373Z,4.22
2023-03-19T01:10:12.513Z,5.18
2023-03-19T01:12:40.482Z,4.70
2023-03-19T01:15:09.048Z,5.20
2023-03-19T01:17:37.197Z,4.80
2023-03-19T01:20:08.942Z,4.70
2023-03-19T01:22:37.750Z,4.90
2023-03-19T01:25:06.747Z,5.05
2023-03-19T01:27:35.682Z,4.65
2023-03-19T01:30:05.225Z,4.25
2023-03-19T01:32:51.948Z,4.43
2023-03-19T01:35:31.434Z,5.13
2023-03-19T01:37:59.355Z,4.00
2023-03-19T01:40:28.357Z,4.05
2023-03-19T01:43:21.611Z,4.57
2023-03-19T01:46:18.559Z,3.85
2023-03-19T01:49:12.838Z,4.43
2023-03-19T01:51:46.035Z,4.50
2023-03-19T01:54:28.999Z,3.85
2023-03-19T01:57:13.544Z,4.20
2023-03-19T02:00:14.369Z,6.55
2023-03-19T02:02:47.969Z,4.80
2023-03-19T02:05:36.649Z,6.10
2023-03-19T02:08:11.864Z,5.57
2023-03-19T02:10:45.258Z,4.72
2023-03-19T02:13:13.710Z,5.47
2023-03-19T02:15:42.425Z,4.32
2023-03-19T02:18:11.240Z,4.38
2023-03-19T02:20:51.866Z,5.68
2023-03-19T02:23:47.751Z,4.40
2023-03-19T02:26:24.654Z,4.78
2023-03-19T02:28:53.682Z,5.53
2023-03-19T02:31:31.040Z,5.35
2023-03-19T02:33:59.322Z,4.85
2023-03-19T02:36:33.149Z,4.95
2023-03-19T02:39:04.256Z,4.47
2023-03-19T02:41:33.121Z,4.43
2023-03-19T02:44:03.898Z,4.15
2023-03-19T02:46:32.670Z,4.35
2023-03-19T02:49:00.774Z,4.85
2023-03-19T02:51:28.625Z,4.68
2023-03-19T02:53:56.594Z,4.18
2023-03-19T02:56:24.469Z,4.35
2023-03-19T02:58:52.342Z,3.55
2023-03-19T03:01:20.893Z,3.28
2023-03-19T03:03:48.936Z,4.65
2023-03-19T03:06:17.925Z,4.75
2023-03-19T03:08:46.146Z,3.92
2023-03-19T03:11:14.012Z,4.00
2023-03-19T03:13:42.065Z,4.47
2023-03-19T03:16:10.085Z,4.45
2023-03-19T03:18:39.241Z,4.35
2023-03-19T03:21:07.170Z,5.00
2023-03-19T03:23:35.041Z,5.40
2023-03-19T03:26:03.098Z,4.30
2023-03-19T03:28:30.962Z,5.20
2023-03-19T03:30:59.862Z,4.50
2023-03-19T03:33:28.088Z,4.68
2023-03-19T03:35:56.608Z,5.70
2023-03-19T03:38:24.650Z,6.10
2023-03-19T03:40:53.253Z,5.25
2023-03-19T03:43:24.645Z,4.93
2023-03-19T03:45:53.419Z,4.68
2023-03-19T03:48:22.005Z,4.20
2023-03-19T03:50:51.602Z,4.50
2023-03-19T03:53:24.073Z,4.55
2023-03-19T03:55:52.288Z,5.40
2023-03-19T04:00:52.366Z,4.68
2023-03-19T04:03:20.460Z,5.78
2023-03-19T04:05:48.462Z,4.63
2023-03-19T04:08:16.824Z,5.40
2023-03-19T04:10:44.816Z,4.97
2023-03-19T04:13:12.986Z,4.97
2023-03-19T04:15:43.665Z,5.45
2023-03-19T04:18:12.977Z,5.03
2023-03-19T04:20:41.304Z,4.78
2023-03-19T04:23:09.261Z,5.13
2023-03-19T04:25:41.112Z,5.93
2023-03-19T04:28:09.203Z,4.50
2023-03-19T04:30:37.860Z,5.07
2023-03-19T04:33:06.927Z,4.22
2023-03-19T04:35:35.091Z,4.68
2023-03-19T04:38:04.021Z,4.88
2023-03-19T04:40:32.192Z,4.82
2023-03-19T04:43:00.830Z,4.32
2023-03-19T04:45:36.794Z,4.30
2023-03-19T04:48:05.077Z,4.53
2023-03-19T04:50:36.067Z,4.43
2023-03-19T04:53:04.521Z,4.63
2023-03-19T04:55:32.581Z,4.82
2023-03-19T04:58:09.089Z,4.10
2023-03-19T05:00:38.204Z,4.25
2023-03-19T05:03:07.452Z,5.03
2023-03-19T05:05:37.115Z,5.38
2023-03-19T05:08:09.372Z,4.50
2023-03-19T05:10:38.491Z,4.43
2023-03-19T05:13:07.206Z,4.72
2023-03-19T05:15:41.518Z,5.13
2023-03-19T05:18:09.442Z,4.80
2023-03-19T05:20:55.496Z,4.25
2023-03-19T05:23:24.197Z,5.10
2023-03-19T05:26:04.003Z,3.95
2023-03-19T05:28:58.084Z,4.45
2023-03-19T05:31:34.943Z,4.65
2023-03-19T05:34:03.380Z,4.82
2023-03-19T05:36:33.569Z,5.00
2023-03-19T05:39:13.783Z,4.55
2023-03-19T05:41:43.724Z,4.55
2023-03-19T05:44:13.510Z,4.90
2023-03-19T05:47:04.787Z,5.40
2023-03-19T05:49:35.843Z,4.28
2023-03-19T05:52:05.455Z,4.28
2023-03-19T05:54:33.944Z,4.10
2023-03-19T05:57:40.436Z,4.40
2023-03-19T06:00:12.106Z,3.90
2023-03-19T06:02:40.495Z,3.30
2023-03-19T06:05:26.533Z,4.22
2023-03-19T06:10:35.859Z,3.75
2023-03-19T06:13:08.484Z,3.50
2023-03-19T06:15:42.772Z,4.55
2023-03-19T06:18:29.258Z,3.92
2023-03-19T06:20:57.608Z,3.90
2023-03-19T06:23:26.179Z,4.78
2023-03-19T06:25:54.130Z,5.03
2023-03-19T06:28:24.410Z,4.55
2023-03-19T06:30:55.551Z,5.15
2023-03-19T06:33:50.332Z,4.75
2023-03-19T06:36:18.634Z,4.72
2023-03-19T06:38:46.683Z,4.63
2023-03-19T06:41:14.811Z,5.30
2023-03-19T06:43:43.143Z,4.75
2023-03-19T06:46:11.872Z,4.88
2023-03-19T06:48:39.820Z,4.35
2023-03-19T06:51:07.760Z,4.35
2023-03-19T06:53:35.937Z,5.20
2023-03-19T06:56:04.148Z,4.22
2023-03-19T06:58:32.026Z,4.82
2023-03-19T07:01:01.224Z,5.07
2023-03-19T07:03:55.279Z,5.30
2023-03-19T07:06:31.540Z,5.13
2023-03-19T07:09:00.843Z,5.25
2023-03-19T07:11:28.723Z,4.57
2023-03-19T07:13:56.642Z,3.92
2023-03-19T07:16:24.517Z,4.75
2023-03-19T07:18:52.402Z,5.32
2023-03-19T07:21:20.735Z,5.57
2023-03-19T07:23:50.579Z,3.85
2023-03-19T07:26:18.952Z,4.65
2023-03-19T07:28:46.926Z,4.72
2023-03-19T07:31:14.804Z,4.35
2023-03-19T07:33:42.721Z,3.78
2023-03-19T07:36:11.186Z,3.45
2023-03-19T07:38:39.047Z,3.38
2023-03-19T07:41:06.937Z,3.40
2023-03-19T07:43:34.893Z,3.35
2023-03-19T07:46:03.060Z,3.45
2023-03-19T07:48:30.976Z,3.65
2023-03-19T07:50:58.918Z,3.17
2023-03-19T07:53:27.117Z,3.00
2023-03-19T07:55:56.432Z,2.95
2023-03-19T07:58:24.335Z,3.25
2023-03-19T08:00:53.413Z,3.10
2023-03-19T08:03:21.248Z,3.40
2023-03-19T08:05:49.999Z,3.08
2023-03-19T08:08:18.122Z,3.38
2023-03-19T08:10:47.934Z,3.60
2023-03-19T08:13:18.181Z,3.10
2023-03-19T08:15:46.246Z,2.65
2023-03-19T08:18:14.228Z,2.88
2023-03-19T08:20:42.324Z,3.20
2023-03-19T08:23:10.478Z,4.03
2023-03-19T08:25:38.645Z,3.47
2023-03-19T08:28:09.703Z,3.60
2023-03-19T08:33:06.701Z,3.50
2023-03-19T08:35:34.610Z,3.33
2023-03-19T08:38:02.517Z,3.17
2023-03-19T08:40:30.484Z,3.67
2023-03-19T08:43:01.229Z,3.08
2023-03-19T08:45:29.093Z,3.50
2023-03-19T08:47:58.192Z,3.80
2023-03-19T08:50:26.181Z,4.25
2023-03-19T08:52:54.133Z,4.88
2023-03-19T08:55:21.805Z,4.63
2023-03-19T08:57:49.764Z,4.63
2023-03-19T09:00:18.216Z,4.85
2023-03-19T09:02:46.237Z,5.00
2023-03-19T09:05:14.023Z,4.95
2023-03-19T09:07:41.545Z,6.35
2023-03-19T09:10:09.952Z,5.50
2023-03-19T09:12:37.767Z,5.43
2023-03-19T09:15:06.844Z,5.57
2023-03-19T09:17:34.776Z,6.22
2023-03-19T09:20:02.235Z,5.32
2023-03-19T09:22:30.319Z,5.97
2023-03-19T09:24:58.138Z,5.75
2023-03-19T09:27:26.013Z,5.63
2023-03-19T09:29:54.021Z,5.22
2023-03-19T09:32:21.954Z,5.28
2023-03-19T09:34:50.390Z,4.93
2023-03-19T09:37:19.727Z,5.60
2023-03-19T09:39:48.197Z,5.28
2023-03-19T09:42:45.576Z,5.60
2023-03-19T09:45:16.694Z,7.13
2023-03-19T09:47:49.413Z,5.72
2023-03-19T09:50:21.326Z,5.95
2023-03-19T09:53:37.762Z,5.55
2023-03-19T09:56:08.690Z,5.45
2023-03-19T10:01:04.714Z,5.55
2023-03-19T10:04:07.071Z,5.63
2023-03-19T10:06:39.663Z,5.65
2023-03-19T10:09:19.877Z,6.50
2023-03-19T10:11:50.310Z,6.53
2023-03-19T10:14:48.364Z,6.63
2023-03-19T10:17:32.951Z,7.03
2023-03-19T10:20:48.426Z,6.05
2023-03-19T10:24:21.559Z,4.43
2023-03-19T10:26:56.858Z,5.65
2023-03-19T10:29:26.137Z,5.63
2023-03-19T10:32:04.891Z,5.97
2023-03-19T10:34:35.876Z,5.22
2023-03-19T10:37:13.948Z,5.68
2023-03-19T10:39:44.998Z,5.60
2023-03-19T10:42:46.533Z,4.95
2023-03-19T10:45:35.557Z,5.47
2023-03-19T10:48:06.741Z,5.05
2023-03-19T10:51:00.561Z,4.53
2023-03-19T10:53:36.384Z,4.70
2023-03-19T10:56:10.721Z,5.35
2023-03-19T10:58:40.308Z,5.20
2023-03-19T11:01:13.061Z,5.63
2023-03-19T11:04:21.635Z,5.53
2023-03-19T11:06:54.913Z,5.55
2023-03-19T11:09:35.787Z,5.70
2023-03-19T11:12:33.790Z,5.38
2023-03-19T11:15:07.475Z,5.38
2023-03-19T11:18:27.535Z,6.28
2023-03-19T11:21:07.191Z,6.43
2023-03-19T11:23:44.914Z,6.85
2023-03-19T11:26:21.486Z,6.38
2023-03-19T11:29:01.147Z,6.45
2023-03-19T11:32:21.076Z,6.43
2023-03-19T11:35:09.633Z,6.53
2023-03-19T11:38:03.421Z,6.00
2023-03-19T11:40:48.213Z,6.63
2023-03-19T11:44:01.462Z,6.90
2023-03-19T11:46:39.569Z,6.20
2023-03-19T11:49:44.133Z,5.43
2023-03-19T11:52:41.664Z,5.68
2023-03-19T11:55:22.186Z,6.18
2023-03-19T11:58:14.269Z,5.05
2023-03-19T12:00:55.090Z,5.40
2023-03-19T12:03:53.656Z,4.95
2023-03-19T12:06:54.073Z,4.80
2023-03-19T12:10:21.756Z,5.20
2023-03-19T12:13:16.587Z,5.13
2023-03-19T12:16:04.869Z,5.35
2023-03-19T12:19:25.048Z,6.05
2023-03-19T12:22:23.058Z,5.45
2023-03-19T12:25:07.897Z,4.88
2023-03-19T12:28:09.810Z,6.03
2023-03-19T12:30:56.560Z,5.40
2023-03-19T12:33:58.329Z,5.88
2023-03-19T12:36:32.156Z,5.10
2023-03-19T12:39:30.743Z,5.38
2023-03-19T12:42:00.049Z,4.95
2023-03-19T12:44:32.983Z,5.18
2023-03-19T12:47:14.219Z,4.55
2023-03-19T12:49:54.701Z,3.90
2023-03-19T12:52:38.355Z,4.63
2023-03-19T12:55:53.670Z,4.68
2023-03-19T12:58:35.639Z,4.30
2023-03-19T13:01:18.431Z,4.75
2023-03-19T13:03:52.390Z,4.28
2023-03-19T13:06:35.344Z,4.72
2023-03-19T13:09:32.405Z,4.68
2023-03-19T13:12:18.425Z,5.13
2023-03-19T13:14:59.760Z,5.07
2023-03-19T13:18:32.956Z,5.35
2023-03-19T13:21:25.743Z,5.80
2023-03-19T13:24:28.285Z,4.68
2023-03-19T13:26:59.151Z,5.30
2023-03-19T13:29:31.758Z,5.43
2023-03-19T13:32:48.840Z,5.30
2023-03-19T13:35:32.163Z,5.55
2023-03-19T13:38:17.648Z,5.85
2023-03-19T13:40:52.728Z,5.45
2023-03-19T13:43:53.174Z,5.18
2023-03-19T13:46:22.629Z,5.50
2023-03-19T13:48:54.369Z,4.65
2023-03-19T13:51:29.691Z,5.55
2023-03-19T13:54:13.072Z,4.57
2023-03-19T13:57:01.632Z,5.13
2023-03-19T13:59:33.028Z,5.60
2023-03-19T14:02:03.241Z,5.82
2023-03-19T14:04:33.549Z,5.43
2023-03-19T14:07:11.615Z,5.57
2023-03-19T14:10:21.800Z,4.60
2023-03-19T14:12:50.200Z,4.70
2023-03-19T14:15:23.095Z,4.32
2023-03-19T14:17:54.060Z,4.63
2023-03-19T14:23:11.602Z,4.78
2023-03-19T14:26:11.057Z,4.47
2023-03-19T14:28:59.361Z,4.47
2023-03-19T14:31:39.462Z,4.35
2023-03-19T14:34:43.374Z,4.30
2023-03-19T14:37:21.702Z,4.30
2023-03-19T14:40:08.669Z,4.10
2023-03-19T14:43:02.260Z,3.72
2023-03-19T14:45:42.207Z,4.20
2023-03-19T14:48:56.399Z,4.30
2023-03-19T14:51:50.941Z,3.97
2023-03-19T14:54:30.882Z,2.85
2023-03-19T14:57:05.783Z,3.37
2023-03-19T14:59:40.663Z,3.22
2023-03-19T15:02:30.752Z,3.05
2023-03-19T15:05:00.730Z,3.30
2023-03-19T15:07:40.650Z,4.60
2023-03-19T15:10:18.045Z,3.50
2023-03-19T15:13:03.646Z,3.00
2023-03-19T15:16:00.510Z,3.20
2023-03-19T15:18:30.247Z,2.25
2023-03-19T15:20:59.521Z,3.13
2023-03-19T15:23:29.398Z,2.42
2023-03-19T15:26:03.017Z,2.72
2023-03-19T15:28:49.619Z,2.42
2023-03-19T15:31:36.631Z,2.00
2023-03-19T15:34:27.855Z,2.40
2023-03-19T15:37:07.028Z,2.38
2023-03-19T15:39:41.512Z,1.92
2023-03-19T15:42:09.659Z,2.00
2023-03-19T15:44:45.509Z,2.38
2023-03-19T15:47:22.095Z,1.80
2023-03-19T15:49:59.365Z,1.42
2023-03-19T15:52:36.296Z,1.70
2023-03-19T15:55:04.980Z,1.80
2023-03-19T15:57:34.187Z,1.45
2023-03-19T16:00:02.544Z,1.50
2023-03-19T16:02:42.913Z,1.58
2023-03-19T16:05:26.327Z,1.77
2023-03-19T16:08:00.431Z,1.35
2023-03-19T16:10:38.992Z,1.45
2023-03-19T16:13:29.974Z,1.55
2023-03-19T16:18:52.905Z,1.50
2023-03-19T16:21:36.152Z,1.85
2023-03-19T16:24:14.757Z,1.48
2023-03-19T16:26:44.667Z,1.60
2023-03-19T16:30:09.709Z,1.65
2023-03-19T16:32:37.898Z,1.63
2023-03-19T16:35:06.988Z,1.45
2023-03-19T16:37:37.901Z,1.90
2023-03-19T16:42:40.648Z,1.33
2023-03-19T16:45:30.489Z,1.70
2023-03-19T16:48:03.519Z,2.03
2023-03-19T16:50:40.824Z,1.67
2023-03-19T16:53:25.755Z,1.77
2023-03-19T16:55:56.060Z,1.80
2023-03-19T16:58:36.278Z,2.13
2023-03-19T17:01:19.274Z,2.03
2023-03-19T17:04:01.671Z,1.67
2023-03-19T17:06:34.348Z,2.10
2023-03-19T17:09:02.309Z,2.10
2023-03-19T17:11:38.714Z,2.10
2023-03-19T17:14:12.079Z,2.05
2023-03-19T17:16:46.835Z,2.25
2023-03-19T17:19:38.332Z,1.75
2023-03-19T17:22:07.231Z,1.80
2023-03-19T17:24:35.554Z,2.22
2023-03-19T17:27:04.561Z,1.98
2023-03-19T17:29:34.585Z,1.95
2023-03-19T17:32:04.168Z,2.15
2023-03-19T17:34:37.752Z,2.08
2023-03-19T17:37:12.241Z,2.28
2023-03-19T17:39:43.050Z,2.13
2023-03-19T17:42:33.471Z,2.38
2023-03-19T17:45:01.677Z,2.65
2023-03-19T17:47:29.667Z,2.25
2023-03-19T17:49:57.911Z,2.58
2023-03-19T17:52:25.731Z,2.20
2023-03-19T17:54:53.656Z,2.63
2023-03-19T17:57:21.561Z,2.92
2023-03-19T17:59:49.412Z,4.20
2023-03-19T18:02:28.553Z,4.20
2023-03-19T18:04:56.495Z,3.30
2023-03-19T18:07:24.365Z,3.35
2023-03-19T18:09:52.195Z,3.22
2023-03-19T18:12:21.681Z,3.08
2023-03-19T18:14:49.780Z,3.53
2023-03-19T18:17:18.086Z,4.35
2023-03-19T18:19:50.508Z,3.33
2023-03-19T18:22:20.135Z,3.25
2023-03-19T18:24:48.360Z,3.00
2023-03-19T18:27:16.308Z,2.38
2023-03-19T18:29:44.236Z,3.30
2023-03-19T18:32:25.214Z,2.72
2023-03-19T18:34:53.266Z,2.58
2023-03-19T18:37:21.199Z,2.33
2023-03-19T18:39:49.951Z,2.42
2023-03-19T18:42:17.897Z,2.13
2023-03-19T18:44:46.036Z,2.90
2023-03-19T18:47:15.760Z,2.90
2023-03-19T18:49:44.572Z,2.33
2023-03-19T18:52:15.897Z,1.92
2023-03-19T18:54:51.683Z,2.15
2023-03-19T18:57:19.548Z,2.22
2023-03-19T18:59:47.433Z,2.35
2023-03-19T19:02:29.533Z,3.00
2023-03-19T19:04:58.211Z,2.78
2023-03-19T19:07:26.062Z,3.38
2023-03-19T19:09:54.073Z,3.67
2023-03-19T19:12:22.209Z,4.05
2023-03-19T19:14:50.229Z,3.92
2023-03-19T19:17:21.338Z,4.07
2023-03-19T19:19:49.427Z,4.25
2023-03-19T19:22:18.187Z,4.78
2023-03-19T19:24:46.350Z,4.88
2023-03-19T19:27:32.699Z,5.22
2023-03-19T19:30:01.456Z,5.13
2023-03-19T19:32:30.751Z,5.90
2023-03-19T19:34:58.724Z,5.95
2023-03-19T19:37:26.693Z,6.38
2023-03-19T19:39:54.588Z,7.85
2023-03-19T19:42:23.374Z,7.38
2023-03-19T19:44:54.398Z,6.50
2023-03-19T19:47:22.770Z,7.32
2023-03-19T19:49:50.689Z,8.40
2023-03-19T19:52:19.726Z,9.00
2023-03-19T19:54:47.709Z,8.50
2023-03-19T19:57:24.409Z,8.15
2023-03-19T19:59:52.889Z,8.48
2023-03-19T20:02:28.711Z,9.18
2023-03-19T20:04:57.793Z,8.73
2023-03-19T20:07:25.754Z,8.38
2023-03-19T20:09:53.617Z,8.80
2023-03-19T20:12:29.741Z,9.02
2023-03-19T20:14:58.067Z,8.50
2023-03-19T20:17:27.317Z,7.90
2023-03-19T20:19:55.249Z,8.38
2023-03-19T20:22:23.158Z,8.40
2023-03-19T20:24:51.736Z,8.35
2023-03-19T20:27:23.589Z,8.20
2023-03-19T20:29:53.528Z,9.05
2023-03-19T20:32:34.381Z,9.88
2023-03-19T20:35:02.766Z,9.48
2023-03-19T20:37:31.067Z,9.27
2023-03-19T20:40:00.468Z,8.88
2023-03-19T20:42:31.190Z,8.23
2023-03-19T20:44:59.636Z,8.80
2023-03-19T20:47:27.971Z,8.10
2023-03-19T20:49:56.271Z,7.97
2023-03-19T20:52:24.201Z,7.68
2023-03-19T20:54:52.694Z,8.05
2023-03-19T20:57:27.333Z,8.40
2023-03-19T20:59:55.722Z,7.93
2023-03-19T21:02:25.164Z,8.77
2023-03-19T21:04:53.133Z,7.57
2023-03-19T21:07:33.285Z,7.72
2023-03-19T21:10:20.071Z,7.22
2023-03-19T21:12:48.135Z,8.27
2023-03-19T21:15:16.700Z,7.28
2023-03-19T21:17:44.723Z,7.63
2023-03-19T21:20:23.929Z,7.57
2023-03-19T21:23:14.214Z,7.80
2023-03-19T21:25:43.359Z,8.48
2023-03-19T21:28:22.536Z,7.95
2023-03-19T21:30:50.410Z,7.80
2023-03-19T21:33:27.962Z,8.68
2023-03-19T21:35:57.784Z,8.65
2023-03-19T21:38:26.078Z,6.18
2023-03-19T21:41:00.474Z,7.38
2023-03-19T21:43:41.298Z,7.25
2023-03-19T21:46:24.271Z,8.45
2023-03-19T21:48:54.574Z,7.22
2023-03-19T21:51:23.573Z,6.93
2023-03-19T21:53:51.662Z,7.78
2023-03-19T21:56:33.372Z,7.60
2023-03-19T21:59:04.464Z,8.05
2023-03-19T22:01:32.486Z,7.70
2023-03-19T22:04:00.442Z,7.97
2023-03-19T22:06:28.952Z,7.18
2023-03-19T22:08:56.830Z,7.95
2023-03-19T22:11:30.940Z,7.85
2023-03-19T22:14:27.879Z,7.68
2023-03-19T22:16:57.053Z,8.15
2023-03-19T22:19:25.751Z,7.68
2023-03-19T22:21:53.682Z,8.75
2023-03-19T22:24:21.552Z,8.32
2023-03-19T22:26:56.422Z,7.85
2023-03-19T22:29:25.573Z,7.85
2023-03-19T22:31:55.298Z,8.45
2023-03-19T22:34:27.682Z,9.35
2023-03-19T22:36:55.828Z,8.05
2023-03-19T22:39:23.762Z,7.05
2023-03-19T22:41:51.743Z,7.82
2023-03-19T22:44:31.897Z,7.20
2023-03-19T22:47:01.683Z,9.32
2023-03-19T22:49:29.826Z,8.23
2023-03-19T22:51:59.483Z,6.90
2023-03-19T22:54:32.470Z,7.65
2023-03-19T22:57:03.536Z,7.57
2023-03-19T22:59:38.501Z,7.43
2023-03-19T23:02:06.800Z,7.40
2023-03-19T23:04:34.777Z,7.30
2023-03-19T23:07:02.870Z,8.68
2023-03-19T23:09:35.656Z,8.25
2023-03-19T23:12:04.637Z,6.85
2023-03-19T23:14:32.740Z,6.88
2023-03-19T23:17:22.623Z,6.80
2023-03-19T23:19:51.167Z,6.68
2023-03-19T23:22:19.049Z,7.43
2023-03-19T23:24:46.947Z,7.32
2023-03-19T23:27:24.314Z,6.10
2023-03-19T23:29:52.700Z,7.82
2023-03-19T23:32:22.686Z,7.90
2023-03-19T23:34:59.554Z,6.97
2023-03-19T23:37:29.298Z,6.70
2023-03-19T23:39:57.640Z,7.57
2023-03-19T23:42:31.342Z,6.05
2023-03-19T23:45:03.514Z,6.45
2023-03-19T23:47:31.643Z,7.40
2023-03-19T23:49:59.515Z,7.20
2023-03-19T23:52:27.369Z,7.13
2023-03-19T23:54:56.950Z,7.03
2023-03-19T23:57:26.648Z,7.47
2023-03-19T23:59:54.655Z,7.13
